Disclaimer

Please do not use the information listed here in-flight or in-navigation, as they are not provided to us by the airports but are provided by volunteers, so they might be outdated.

Search


Regions


Airport information page

Radio informations:
Tower (TWR) - 120.5 MHz
Ground (GND) - 121.7 MHz
DEP - 118.9 MHz
Clearance delivery - 127.2 MHz
Automatic Terminal Information Service (ATIS) - 114.1 MHz
Approach (APP) - 132.0 MHz

Airport informations:
Latitude: 37° 40' 24.00" S
Longitude: 144° 50' 36.00" E
Elevation: 434 feet - 132 meters
Operating hours: N/A
Operating agency: Civil government, landing fees and diplomatic clearance may be required
Timezone: UTC+10(+11DT)
Fuel: Jet A1, without icing nhibitor.

100/130 MIL Spec, low lead, aviation gasoline (BLUE)

Runway information:
09/27 - 7500 x 148 feet< - >2286 x 45 meters
16/34 - 11998 x 148 feet< - >3657 x 45 meters

Recent METARs:
YMML 142000Z 21006KT 9999 FEW025 SCT300 11/09 Q1022
YMML 142000Z 21006KT 9999 FEW025 SCT300 11/09 Q1022
YMML 142100Z 21008KT 9999 BKN028 SCT300 12/08 Q1022 FM2300 18015G25KT 9999 FEW040

Airport on the map: